Time;durP1;ratioP1;P1;durP2;ratioP2;P2;SDS_P1;SDS_P2;PMS_P1;PMS_P2;Temp;Humidity;BMP_temperature;BMP_pressure;BME280_temperature;BME280_humidity;BME280_pressure;Samples;Min_cycle;Max_cycle;Signal;HPM_P1;HPM_P2
2024/01/19 00:01:44;;;;;;;1.00;1.00;;;;;;;-4.16;100.00;99035.50;5034880;28;20044;-60
2024/01/19 00:04:11;;;;;;;1.00;1.00;;;;;;;-4.16;100.00;99040.75;5018645;28;20406;-60
2024/01/19 00:06:40;;;;;;;1.00;1.00;;;;;;;-4.15;100.00;99036.31;5037124;28;20061;-60
2024/01/19 00:09:08;;;;;;;1.10;1.10;;;;;;;-4.25;100.00;99039.03;5032514;28;20049;-60
2024/01/19 00:11:36;;;;;;;1.00;1.00;;;;;;;-4.22;100.00;99040.53;5037152;28;20792;-60
2024/01/19 00:14:03;;;;;;;1.00;1.00;;;;;;;-4.30;100.00;99049.13;5030285;28;20056;-60
2024/01/19 00:16:30;;;;;;;1.10;1.10;;;;;;;-4.29;100.00;99055.19;5033070;28;20045;-60
2024/01/19 00:18:57;;;;;;;1.10;1.10;;;;;;;-4.28;100.00;99055.03;5039585;28;20324;-60
2024/01/19 00:21:25;;;;;;;1.08;1.08;;;;;;;-4.20;100.00;99057.72;5034110;28;20076;-60
2024/01/19 00:23:52;;;;;;;1.00;1.00;;;;;;;-4.24;100.00;99059.00;5032533;28;20045;-60
2024/01/19 00:26:21;;;;;;;1.10;1.10;;;;;;;-4.21;100.00;99063.94;5033618;28;20118;-61
2024/01/19 00:28:48;;;;;;;0.98;0.98;;;;;;;-4.24;100.00;99068.63;5033792;28;20041;-60
2024/01/19 00:31:16;;;;;;;0.98;0.98;;;;;;;-4.19;100.00;99072.47;5035744;28;20067;-60
2024/01/19 00:33:44;;;;;;;1.08;1.08;;;;;;;-4.14;100.00;99074.63;5017305;28;20491;-60
2024/01/19 00:36:11;;;;;;;1.10;1.10;;;;;;;-4.14;100.00;99082.47;5022467;28;20527;-60
2024/01/19 00:38:38;;;;;;;0.90;0.90;;;;;;;-4.13;100.00;99081.50;5031290;28;20064;-60
2024/01/19 00:41:05;;;;;;;0.90;0.90;;;;;;;-4.10;100.00;99085.59;5034155;28;20491;-60
2024/01/19 00:43:34;;;;;;;1.10;1.10;;;;;;;-4.11;100.00;99084.78;5040484;28;20049;-60
2024/01/19 00:46:03;;;;;;;1.10;1.10;;;;;;;-4.14;100.00;99093.78;5037571;28;20045;-60
2024/01/19 00:48:30;;;;;;;0.98;0.98;;;;;;;-4.22;100.00;99093.72;5029508;28;20175;-60
2024/01/19 00:50:57;;;;;;;1.00;1.00;;;;;;;-4.24;100.00;99095.66;5031314;28;20057;-60
2024/01/19 00:53:24;;;;;;;1.10;1.10;;;;;;;-4.23;100.00;99101.69;5035265;28;20047;-60
2024/01/19 00:55:51;;;;;;;1.10;1.10;;;;;;;-4.16;100.00;99102.75;5034271;28;20634;-60
2024/01/19 00:58:18;;;;;;;1.10;1.10;;;;;;;-4.16;100.00;99098.31;5032595;28;20057;-60
2024/01/19 01:00:47;;;;;;;1.10;1.10;;;;;;;-4.07;100.00;99101.00;5038232;28;20045;-60
2024/01/19 01:03:22;;;;;;;1.00;1.00;;;;;;;-4.18;100.00;99104.69;5036583;28;20485;-60
2024/01/19 01:05:49;;;;;;;0.90;0.90;;;;;;;-4.15;100.00;99099.97;5035244;28;20407;-60
2024/01/19 01:08:16;;;;;;;1.08;1.08;;;;;;;-4.18;100.00;99097.66;5021300;28;20206;-60
2024/01/19 01:10:45;;;;;;;1.00;1.00;;;;;;;-4.09;100.00;99102.94;5033878;28;20087;-60
2024/01/19 01:13:12;;;;;;;1.10;1.10;;;;;;;-3.98;100.00;99110.56;5035897;28;20284;-60
2024/01/19 01:15:39;;;;;;;1.10;1.10;;;;;;;-4.05;100.00;99120.00;5036075;28;20049;-60
2024/01/19 01:18:08;;;;;;;0.90;0.90;;;;;;;-4.02;100.00;99119.69;5042082;28;20115;-60
2024/01/19 01:20:36;;;;;;;1.00;1.00;;;;;;;-4.06;100.00;99128.84;5046470;28;20041;-60
2024/01/19 01:23:03;;;;;;;1.10;1.10;;;;;;;-4.28;100.00;99130.13;5041267;28;20099;-60
2024/01/19 01:25:31;;;;;;;1.05;1.05;;;;;;;-4.32;100.00;99124.34;5035232;28;20060;-60
2024/01/19 01:27:58;;;;;;;0.90;0.90;;;;;;;-4.48;100.00;99129.44;5037638;28;20145;-60
2024/01/19 01:30:25;;;;;;;1.10;1.10;;;;;;;-4.39;100.00;99134.59;5039590;28;20228;-60
2024/01/19 01:32:52;;;;;;;1.10;1.10;;;;;;;-4.48;100.00;99135.50;5040255;28;20396;-60
2024/01/19 01:35:21;;;;;;;1.00;1.00;;;;;;;-4.67;100.00;99146.88;5038651;28;20479;-59
2024/01/19 01:37:48;;;;;;;1.10;1.10;;;;;;;-4.70;100.00;99152.41;5031273;28;20075;-60
2024/01/19 01:40:15;;;;;;;1.00;1.00;;;;;;;-4.70;100.00;99156.81;5038781;28;20329;-60
2024/01/19 01:42:42;;;;;;;1.10;1.10;;;;;;;-4.61;100.00;99148.13;5038272;28;20041;-61
2024/01/19 01:45:09;;;;;;;1.10;1.10;;;;;;;-4.38;100.00;99156.34;5027441;28;20048;-60
2024/01/19 01:47:36;;;;;;;0.80;0.80;;;;;;;-4.53;100.00;99157.84;5038243;28;20044;-60
2024/01/19 01:50:04;;;;;;;1.02;1.02;;;;;;;-4.60;100.00;99166.25;5025847;28;20817;-60
2024/01/19 01:52:33;;;;;;;0.90;0.90;;;;;;;-4.89;100.00;99173.44;5037220;28;20041;-60
2024/01/19 01:55:00;;;;;;;0.98;0.98;;;;;;;-5.27;100.00;99159.56;5041835;28;20139;-60
2024/01/19 01:57:27;;;;;;;1.10;1.10;;;;;;;-5.14;100.00;99175.75;5038890;28;20051;-60
2024/01/19 01:59:54;;;;;;;1.02;1.02;;;;;;;-5.24;100.00;99177.59;5037413;28;20064;-60
2024/01/19 02:02:21;;;;;;;1.00;1.00;;;;;;;-5.48;100.00;99186.69;5041507;28;20067;-60
2024/01/19 02:04:48;;;;;;;1.02;1.02;;;;;;;-5.39;100.00;99192.03;5023614;28;20046;-60
2024/01/19 02:07:15;;;;;;;1.08;1.08;;;;;;;-5.35;100.00;99193.41;5036916;28;20111;-60
2024/01/19 02:09:44;;;;;;;1.10;1.10;;;;;;;-5.30;100.00;99188.59;5024497;28;20123;-60
2024/01/19 02:12:12;;;;;;;1.10;1.10;;;;;;;-5.19;100.00;99193.66;5041550;28;20708;-60
2024/01/19 02:14:39;;;;;;;1.00;1.00;;;;;;;-5.24;100.00;99191.47;5024001;28;20291;-60
2024/01/19 02:17:06;;;;;;;1.00;1.00;;;;;;;-5.38;100.00;99188.47;5036680;28;20047;-60
2024/01/19 02:19:35;;;;;;;1.10;1.10;;;;;;;-5.26;100.00;99190.78;5037795;28;20049;-60
2024/01/19 02:22:02;;;;;;;1.05;1.05;;;;;;;-5.46;100.00;99197.84;5035015;28;20045;-60
2024/01/19 02:24:31;;;;;;;1.10;1.10;;;;;;;-5.52;100.00;99203.59;5025571;28;20075;-60
2024/01/19 02:26:58;;;;;;;1.02;1.02;;;;;;;-5.58;100.00;99204.19;5024359;28;20053;-60
2024/01/19 02:29:25;;;;;;;0.93;0.93;;;;;;;-5.74;100.00;99204.75;5030396;28;20079;-60
2024/01/19 02:31:52;;;;;;;1.10;1.10;;;;;;;-5.95;100.00;99191.88;5037829;28;20046;-60
2024/01/19 02:34:19;;;;;;;1.00;1.00;;;;;;;-6.19;100.00;99199.28;5031859;28;20068;-59
2024/01/19 02:36:47;;;;;;;1.10;1.10;;;;;;;-6.32;100.00;99205.56;5024353;28;20052;-60
2024/01/19 02:39:14;;;;;;;1.00;1.00;;;;;;;-6.40;100.00;99200.22;5037688;28;20076;-60
2024/01/19 02:41:45;;;;;;;1.00;1.00;;;;;;;-6.39;100.00;99201.88;5036884;28;20062;-60
2024/01/19 02:44:12;;;;;;;1.00;1.00;;;;;;;-6.27;100.00;99213.00;5039796;28;20442;-59
2024/01/19 02:46:39;;;;;;;1.00;1.00;;;;;;;-6.29;100.00;99209.69;5034022;28;20132;-60
2024/01/19 02:49:06;;;;;;;1.00;1.00;;;;;;;-6.32;100.00;99209.97;5035577;28;20045;-60
2024/01/19 02:51:33;;;;;;;0.98;0.98;;;;;;;-6.35;100.00;99210.25;5038409;28;20083;-60
2024/01/19 02:54:00;;;;;;;1.00;1.00;;;;;;;-6.36;100.00;99209.44;5037662;28;20507;-59
2024/01/19 02:56:27;;;;;;;1.20;1.20;;;;;;;-6.24;100.00;99214.50;5038087;28;20045;-60
2024/01/19 02:58:56;;;;;;;1.02;1.02;;;;;;;-6.25;100.00;99210.25;5039693;28;20045;-60
2024/01/19 03:01:23;;;;;;;1.15;1.15;;;;;;;-6.46;100.00;99213.81;5034886;28;20049;-60
2024/01/19 03:03:50;;;;;;;1.10;1.10;;;;;;;-6.48;100.00;99220.94;5026470;28;20117;-59
2024/01/19 03:06:17;;;;;;;1.10;1.10;;;;;;;-6.47;100.00;99212.13;5034028;28;20056;-60
2024/01/19 03:08:44;;;;;;;1.10;1.10;;;;;;;-6.48;100.00;99220.94;5038351;28;20061;-60
2024/01/19 03:11:11;;;;;;;1.10;1.10;;;;;;;-6.39;100.00;99209.72;5017799;28;20574;-60
2024/01/19 03:13:38;;;;;;;1.10;1.10;;;;;;;-6.40;100.00;99215.88;5022549;28;20060;-60
2024/01/19 03:16:07;;;;;;;1.10;1.10;;;;;;;-6.28;100.00;99219.19;5040918;28;20095;-60
2024/01/19 03:18:35;;;;;;;1.00;1.00;;;;;;;-6.33;100.00;99219.59;5035637;28;20037;-60
2024/01/19 03:21:02;;;;;;;1.05;1.05;;;;;;;-6.41;100.00;99221.22;5020919;28;20060;-60
2024/01/19 03:23:29;;;;;;;1.10;1.10;;;;;;;-6.36;100.00;99224.25;5041396;28;20072;-60
2024/01/19 03:25:56;;;;;;;1.10;1.10;;;;;;;-6.38;100.00;99219.16;5032965;28;21129;-60
2024/01/19 03:28:23;;;;;;;1.10;1.10;;;;;;;-6.37;100.00;99227.81;5025211;28;20064;-60
2024/01/19 03:30:50;;;;;;;1.10;1.10;;;;;;;-6.52;100.00;99220.34;5042389;28;20049;-60
2024/01/19 03:33:18;;;;;;;1.10;1.10;;;;;;;-6.61;100.00;99226.38;5033348;28;20148;-61
2024/01/19 03:35:45;;;;;;;1.08;1.08;;;;;;;-6.42;100.00;99225.59;5035650;28;20068;-60
2024/01/19 03:38:12;;;;;;;1.10;1.10;;;;;;;-6.47;100.00;99219.97;5022502;28;20376;-60
2024/01/19 03:40:39;;;;;;;1.10;1.10;;;;;;;-6.40;100.00;99221.06;5039462;28;20044;-60
2024/01/19 03:43:07;;;;;;;1.02;1.02;;;;;;;-6.26;100.00;99234.69;5029983;28;20499;-60
2024/01/19 03:45:34;;;;;;;1.10;1.10;;;;;;;-6.36;100.00;99232.09;5036961;28;20678;-60
2024/01/19 03:48:01;;;;;;;1.10;1.10;;;;;;;-6.40;100.00;99234.13;5037698;28;20040;-60
2024/01/19 03:50:29;;;;;;;1.10;1.10;;;;;;;-6.35;100.00;99233.72;5032491;28;20241;-60
2024/01/19 03:52:56;;;;;;;1.20;1.20;;;;;;;-6.26;100.00;99234.69;5037214;28;20073;-59
2024/01/19 03:55:23;;;;;;;1.10;1.10;;;;;;;-6.36;100.00;99245.94;5039896;28;20049;-60
2024/01/19 03:57:50;;;;;;;1.08;1.08;;;;;;;-6.37;100.00;99244.28;5022289;28;20114;-60
2024/01/19 04:00:18;;;;;;;1.00;1.00;;;;;;;-6.58;100.00;99249.59;5037420;28;20087;-60
2024/01/19 04:02:45;;;;;;;1.10;1.10;;;;;;;-6.60;100.00;99261.09;5039321;28;20065;-60
2024/01/19 04:05:12;;;;;;;1.02;1.02;;;;;;;-6.77;100.00;99255.53;5033679;28;20100;-60
2024/01/19 04:07:40;;;;;;;1.10;1.10;;;;;;;-6.85;100.00;99255.38;5035917;28;20462;-60
2024/01/19 04:10:08;;;;;;;1.20;1.20;;;;;;;-6.88;100.00;99254.81;5032330;28;20053;-59
2024/01/19 04:12:35;;;;;;;1.10;1.10;;;;;;;-6.92;100.00;99256.84;5033015;28;20037;-60
2024/01/19 04:15:02;;;;;;;1.10;1.10;;;;;;;-6.84;100.00;99257.03;5033416;28;20130;-60
2024/01/19 04:17:30;;;;;;;1.00;1.00;;;;;;;-6.98;100.00;99260.81;5021828;28;20132;-59
2024/01/19 04:19:57;;;;;;;1.13;1.13;;;;;;;-7.01;100.00;99260.25;5037288;28;20434;-59
2024/01/19 04:22:25;;;;;;;1.15;1.15;;;;;;;-6.80;100.00;99266.25;5034866;28;20069;-58
2024/01/19 04:24:53;;;;;;;1.00;1.00;;;;;;;-6.75;100.00;99266.66;5034053;28;20531;-59
2024/01/19 04:27:20;;;;;;;1.20;1.20;;;;;;;-6.80;100.00;99263.63;5027086;28;20515;-59
2024/01/19 04:29:47;;;;;;;1.05;1.05;;;;;;;-6.84;100.00;99270.09;5036149;28;20496;-59
2024/01/19 04:32:13;;;;;;;1.10;1.10;;;;;;;-6.79;100.00;99275.72;5030736;28;20037;-59
2024/01/19 04:34:40;;;;;;;1.00;1.00;;;;;;;-6.93;100.00;99283.88;5031799;28;20107;-59
2024/01/19 04:37:07;;;;;;;1.00;1.00;;;;;;;-6.92;100.00;99280.31;5022334;28;20127;-59
2024/01/19 04:39:34;;;;;;;1.10;1.10;;;;;;;-6.97;100.00;99283.28;5039566;28;20526;-59
2024/01/19 04:42:03;;;;;;;1.10;1.10;;;;;;;-6.79;100.00;99283.53;5027892;28;20037;-59
2024/01/19 04:44:30;;;;;;;1.10;1.10;;;;;;;-6.80;100.00;99296.69;5036406;28;20053;-59
2024/01/19 04:46:57;;;;;;;1.20;1.20;;;;;;;-6.89;100.00;99293.06;5036913;28;20057;-59
2024/01/19 04:49:24;;;;;;;1.20;1.20;;;;;;;-6.98;100.00;99297.28;5037900;28;20076;-59
2024/01/19 04:51:51;;;;;;;1.10;1.10;;;;;;;-6.93;100.00;99299.50;5036670;28;20037;-59
2024/01/19 04:54:18;;;;;;;1.10;1.10;;;;;;;-7.06;100.00;99296.25;5028276;28;20623;-59
2024/01/19 04:56:46;;;;;;;1.10;1.10;;;;;;;-7.11;100.00;99295.81;5028972;28;20061;-59
2024/01/19 04:59:14;;;;;;;1.10;1.10;;;;;;;-7.13;100.00;99297.75;5038853;28;20119;-59
2024/01/19 05:01:41;;;;;;;1.10;1.10;;;;;;;-7.00;100.00;99311.41;5031500;28;20049;-59
2024/01/19 05:04:08;;;;;;;1.02;1.02;;;;;;;-7.10;100.00;99313.13;5044114;28;20051;-59
2024/01/19 05:06:35;;;;;;;1.10;1.10;;;;;;;-6.95;100.00;99311.84;5044819;28;20130;-59
2024/01/19 05:09:03;;;;;;;1.20;1.20;;;;;;;-6.89;100.00;99315.72;5044489;28;20056;-59
2024/01/19 05:11:30;;;;;;;1.02;1.02;;;;;;;-6.82;100.00;99322.88;5043792;28;20057;-59
2024/01/19 05:13:57;;;;;;;1.00;1.00;;;;;;;-6.72;100.00;99323.75;5035249;28;20043;-59
2024/01/19 05:16:26;;;;;;;1.10;1.10;;;;;;;-6.66;100.00;99332.84;5014961;28;20050;-59
2024/01/19 05:18:53;;;;;;;1.00;1.00;;;;;;;-6.59;100.00;99318.34;5041925;28;20060;-59
2024/01/19 05:21:20;;;;;;;1.00;1.00;;;;;;;-6.48;100.00;99325.25;5043023;28;20103;-59
2024/01/19 05:23:47;;;;;;;1.00;1.00;;;;;;;-6.28;100.00;99330.53;5039076;28;20550;-58
2024/01/19 05:26:14;;;;;;;1.00;1.00;;;;;;;-6.16;100.00;99339.91;5036474;28;20069;-59
2024/01/19 05:28:41;;;;;;;1.10;1.10;;;;;;;-6.11;100.00;99342.97;5043341;28;20045;-59
2024/01/19 05:31:08;;;;;;;1.00;1.00;;;;;;;-6.28;100.00;99344.41;5032537;28;20041;-59
2024/01/19 05:33:37;;;;;;;1.10;1.10;;;;;;;-6.37;100.00;99343.41;5036044;28;20048;-59
2024/01/19 05:36:07;;;;;;;1.10;1.10;;;;;;;-6.24;100.00;99361.47;5039341;28;20035;-58
2024/01/19 05:38:34;;;;;;;;;;;;;;;-6.07;100.00;99359.97;5039142;28;20128;-59
2024/01/19 05:41:02;;;;;;;1.10;1.10;;;;;;;-5.97;100.00;99353.00;5029462;28;19970;-59
2024/01/19 05:43:29;;;;;;;1.02;1.02;;;;;;;-5.96;100.00;99370.31;5032229;28;20512;-59
2024/01/19 05:45:56;;;;;;;1.00;1.00;;;;;;;-5.95;100.00;99366.75;5034314;28;20605;-58
2024/01/19 05:48:25;;;;;;;1.10;1.10;;;;;;;-5.94;100.00;99365.81;5038732;28;20507;-60
2024/01/19 05:50:53;;;;;;;1.00;1.00;;;;;;;-5.90;100.00;99372.34;5037226;28;20056;-59
2024/01/19 05:53:20;;;;;;;1.10;1.10;;;;;;;-5.94;100.00;99371.03;5023390;28;20152;-59
2024/01/19 05:55:48;;;;;;;0.90;0.90;;;;;;;-5.97;100.00;99373.88;5034622;28;20132;-59
2024/01/19 05:58:15;;;;;;;0.90;0.90;;;;;;;-5.85;100.00;99369.34;5034808;28;20047;-59
2024/01/19 06:00:43;;;;;;;1.10;1.10;;;;;;;-5.75;100.00;99369.38;5037319;28;20120;-59
2024/01/19 06:03:10;;;;;;;1.10;1.10;;;;;;;-5.57;100.00;99370.34;5034583;28;20148;-59
2024/01/19 06:05:37;;;;;;;1.00;1.00;;;;;;;-5.53;100.00;99365.69;5033018;28;20477;-59
2024/01/19 06:08:07;;;;;;;1.00;1.00;;;;;;;-5.46;100.00;99370.25;5042577;28;20045;-59
2024/01/19 06:10:34;;;;;;;1.00;1.00;;;;;;;-5.58;100.00;99376.56;5034534;28;20053;-60
2024/01/19 06:13:02;;;;;;;1.00;1.00;;;;;;;-5.78;100.00;99374.88;5016304;28;20962;-60
2024/01/19 06:15:29;;;;;;;1.00;1.00;;;;;;;-5.76;100.00;99372.97;5035999;28;20045;-60
2024/01/19 06:17:56;;;;;;;1.10;1.10;;;;;;;-5.78;100.00;99380.09;5039433;28;20052;-60
2024/01/19 06:20:23;;;;;;;1.00;1.00;;;;;;;-5.88;100.00;99388.72;5036917;28;20057;-60
2024/01/19 06:22:50;;;;;;;1.00;1.00;;;;;;;-5.89;100.00;99387.06;5039282;28;20401;-60
2024/01/19 06:25:18;;;;;;;1.10;1.10;;;;;;;-5.90;100.00;99395.84;5033780;28;20771;-60
2024/01/19 06:27:45;;;;;;;0.90;0.90;;;;;;;-5.95;100.00;99395.44;5037407;28;20137;-60
2024/01/19 06:30:13;;;;;;;1.02;1.02;;;;;;;-5.83;100.00;99397.94;5047196;28;20541;-60
2024/01/19 06:32:41;;;;;;;1.00;1.00;;;;;;;-5.88;100.00;99407.00;5039508;28;20049;-60
2024/01/19 06:35:10;;;;;;;1.10;1.10;;;;;;;-5.96;100.00;99399.03;5039610;28;20052;-60
2024/01/19 06:37:39;;;;;;;1.08;1.08;;;;;;;-5.99;100.00;99404.53;5036652;28;20029;-60
2024/01/19 06:40:08;;;;;;;1.10;1.10;;;;;;;-5.98;100.00;99406.16;5036733;28;20048;-60
2024/01/19 06:42:36;;;;;;;1.00;1.00;;;;;;;-6.05;100.00;99410.25;5036353;28;20044;-60
2024/01/19 06:45:04;;;;;;;1.10;1.10;;;;;;;-5.94;100.00;99406.72;5038531;28;20060;-61
2024/01/19 06:47:31;;;;;;;1.00;1.00;;;;;;;-6.06;100.00;99413.84;5036726;28;20041;-60
2024/01/19 06:49:58;;;;;;;1.00;1.00;;;;;;;-6.11;100.00;99424.66;5036050;28;20092;-60
2024/01/19 06:52:25;;;;;;;0.90;0.90;;;;;;;-6.15;100.00;99431.09;5015855;28;20618;-60
2024/01/19 06:54:53;;;;;;;1.08;1.08;;;;;;;-6.20;100.00;99427.22;5038933;28;20446;-60
2024/01/19 06:57:20;;;;;;;1.10;1.10;;;;;;;-6.20;100.00;99422.00;5029791;28;20145;-60
2024/01/19 06:59:49;;;;;;;1.00;1.00;;;;;;;-6.47;100.00;99430.38;5036649;28;20046;-60
2024/01/19 07:02:16;;;;;;;1.10;1.10;;;;;;;-6.56;100.00;99427.59;5030738;28;20052;-60
2024/01/19 07:04:43;;;;;;;1.10;1.10;;;;;;;-6.51;100.00;99440.25;5037788;28;20051;-60
2024/01/19 07:07:10;;;;;;;1.10;1.10;;;;;;;-6.39;100.00;99456.63;5034160;28;20403;-60
2024/01/19 07:09:37;;;;;;;1.00;1.00;;;;;;;-6.38;100.00;99456.53;5035408;28;20042;-59
2024/01/19 07:12:05;;;;;;;1.10;1.10;;;;;;;-6.37;100.00;99466.00;5034288;28;20106;-59
2024/01/19 07:14:32;;;;;;;1.10;1.10;;;;;;;-6.55;100.00;99463.13;5035418;28;20778;-58
2024/01/19 07:17:01;;;;;;;1.08;1.08;;;;;;;-6.66;100.00;99470.19;5036860;28;20392;-59
2024/01/19 07:19:28;;;;;;;1.10;1.10;;;;;;;-6.66;100.00;99472.78;5037003;28;20053;-59
2024/01/19 07:21:56;;;;;;;1.10;1.10;;;;;;;-6.63;100.00;99490.81;5035474;28;20048;-59
2024/01/19 07:24:24;;;;;;;1.00;1.00;;;;;;;-6.50;100.00;99496.66;5034436;28;20053;-60
2024/01/19 07:26:51;;;;;;;1.05;1.05;;;;;;;-6.35;100.00;99494.56;5039727;28;20052;-59
2024/01/19 07:29:18;;;;;;;1.10;1.10;;;;;;;-6.35;100.00;99503.22;5036913;28;20049;-59
2024/01/19 07:31:45;;;;;;;1.08;1.08;;;;;;;-6.37;100.00;99499.91;5037172;28;20123;-59
2024/01/19 07:34:13;;;;;;;1.00;1.00;;;;;;;-6.25;100.00;99505.88;5043349;28;20048;-59
2024/01/19 07:36:40;;;;;;;1.05;1.05;;;;;;;-6.34;100.00;99512.72;5034377;28;20049;-59
2024/01/19 07:39:07;;;;;;;1.00;1.00;;;;;;;-6.35;100.00;99518.84;5037072;28;20049;-59
2024/01/19 07:41:34;;;;;;;1.08;1.08;;;;;;;-6.23;100.00;99526.63;5038432;28;20065;-59
2024/01/19 07:44:01;;;;;;;1.08;1.08;;;;;;;-6.16;100.00;99525.19;5034073;28;20056;-59
2024/01/19 07:46:29;;;;;;;1.10;1.10;;;;;;;-5.98;100.00;99531.44;5033300;28;20052;-59
2024/01/19 07:48:56;;;;;;;1.10;1.10;;;;;;;-5.98;100.00;99536.66;5037964;28;20152;-59
2024/01/19 07:51:24;;;;;;;1.02;1.02;;;;;;;-6.20;100.00;99529.81;5037224;28;20051;-59
2024/01/19 07:53:53;;;;;;;1.10;1.10;;;;;;;-6.12;100.00;99527.38;5039201;28;20045;-59
2024/01/19 07:56:20;;;;;;;1.00;1.00;;;;;;;-5.99;100.00;99532.41;5031243;28;20080;-59
2024/01/19 07:58:48;;;;;;;1.08;1.08;;;;;;;-5.96;100.00;99528.72;5036362;28;20047;-59
2024/01/19 08:01:15;;;;;;;1.10;1.10;;;;;;;-5.94;100.00;99539.84;5033465;28;20045;-60
2024/01/19 08:03:42;;;;;;;1.10;1.10;;;;;;;-5.96;100.00;99544.38;5035084;28;20076;-60
2024/01/19 08:06:11;;;;;;;1.00;1.00;;;;;;;-5.82;100.00;99557.03;5035601;28;20106;-60
2024/01/19 08:08:39;;;;;;;1.10;1.10;;;;;;;-5.71;100.00;99554.38;5032535;28;20041;-60
2024/01/19 08:11:06;;;;;;;1.08;1.08;;;;;;;-5.69;100.00;99562.06;5029739;28;20091;-60
2024/01/19 08:13:33;;;;;;;1.10;1.10;;;;;;;-5.79;100.00;99569.00;5036768;28;20110;-60
2024/01/19 08:16:02;;;;;;;1.10;1.10;;;;;;;-5.77;100.00;99567.09;5034370;28;20051;-60
2024/01/19 08:18:33;;;;;;;1.00;1.00;;;;;;;-5.67;100.00;99575.81;5038591;28;20049;-59
2024/01/19 08:21:01;;;;;;;1.10;1.10;;;;;;;-5.52;100.00;99590.19;5039577;28;20051;-59
2024/01/19 08:23:28;;;;;;;1.00;1.00;;;;;;;-5.56;100.00;99587.97;5038240;28;20029;-59
2024/01/19 08:25:57;;;;;;;1.10;1.10;;;;;;;-5.52;100.00;99592.78;5038418;28;20149;-60
2024/01/19 08:28:24;;;;;;;1.10;1.10;;;;;;;-5.49;100.00;99594.31;5040902;28;20583;-59
2024/01/19 08:30:51;;;;;;;1.00;1.00;;;;;;;-5.32;100.00;99596.31;5034538;28;20054;-58
2024/01/19 08:33:18;;;;;;;1.00;1.00;;;;;;;-5.29;100.00;99595.22;5036174;28;20041;-61
2024/01/19 08:35:46;;;;;;;1.02;1.02;;;;;;;-5.14;100.00;99599.16;5035216;28;20042;-59
2024/01/19 08:38:14;;;;;;;1.05;1.05;;;;;;;-5.16;100.00;99603.69;5040423;28;20091;-59
2024/01/19 08:40:41;;;;;;;1.10;1.10;;;;;;;-5.13;100.00;99606.03;5006325;28;20053;-59
2024/01/19 08:43:10;;;;;;;1.20;1.20;;;;;;;-4.64;100.00;99603.50;5033891;28;20367;-59
2024/01/19 08:45:37;;;;;;;1.00;1.00;;;;;;;-4.74;100.00;99610.50;5041724;28;20124;-59
2024/01/19 08:48:05;;;;;;;1.05;1.05;;;;;;;-4.99;100.00;99618.72;5036870;28;20469;-59
2024/01/19 08:50:32;;;;;;;1.00;1.00;;;;;;;-5.47;100.00;99611.50;5039052;28;20059;-59
2024/01/19 08:53:02;;;;;;;1.10;1.10;;;;;;;-5.74;100.00;99606.00;5024737;28;20444;-59
2024/01/19 08:55:30;;;;;;;1.15;1.15;;;;;;;-4.96;100.00;99622.03;5038070;28;20041;-59
2024/01/19 08:57:57;;;;;;;1.08;1.08;;;;;;;-5.23;100.00;99611.22;5024513;28;20049;-59
2024/01/19 09:00:28;;;;;;;1.20;1.20;;;;;;;-4.85;100.00;99614.06;5036766;28;20041;-60
2024/01/19 09:02:55;;;;;;;1.20;1.20;;;;;;;-4.67;100.00;99616.84;5042216;28;20127;-59
2024/01/19 09:05:22;;;;;;;1.20;1.20;;;;;;;-4.65;100.00;99625.41;5034746;28;20091;-60
2024/01/19 09:07:49;;;;;;;1.13;1.13;;;;;;;-4.49;100.00;99630.09;5034414;28;21644;-59
2024/01/19 09:10:16;;;;;;;1.20;1.20;;;;;;;-4.62;100.00;99639.06;5041186;28;20057;-60
2024/01/19 09:12:44;;;;;;;1.10;1.10;;;;;;;-4.59;100.00;99641.41;5039258;28;20068;-60
2024/01/19 09:15:11;;;;;;;1.20;1.20;;;;;;;-3.84;100.00;99646.09;5030043;28;20179;-59
2024/01/19 09:17:39;;;;;;;1.10;1.10;;;;;;;-3.05;100.00;99643.13;5035455;28;20352;-59
2024/01/19 09:20:08;;;;;;;1.00;1.00;;;;;;;-3.92;100.00;99645.00;5035974;28;20457;-59
2024/01/19 09:22:35;;;;;;;1.20;1.20;;;;;;;-3.48;100.00;99655.00;5039232;28;20036;-60
2024/01/19 09:25:02;;;;;;;1.00;1.00;;;;;;;-3.88;100.00;99652.59;5040337;28;20084;-59
2024/01/19 09:27:29;;;;;;;1.02;1.02;;;;;;;-4.53;100.00;99653.09;5036362;28;20049;-59
2024/01/19 09:29:57;;;;;;;1.08;1.08;;;;;;;-4.73;100.00;99665.31;5038070;28;20282;-60
2024/01/19 09:32:24;;;;;;;1.10;1.10;;;;;;;-4.90;100.00;99666.75;5036095;28;20151;-60
2024/01/19 09:34:53;;;;;;;1.08;1.08;;;;;;;-4.60;100.00;99678.16;5038472;28;20907;-60
2024/01/19 09:37:20;;;;;;;1.00;1.00;;;;;;;-4.28;100.00;99682.34;5037877;28;20438;-60
2024/01/19 09:39:47;;;;;;;1.10;1.10;;;;;;;-3.50;100.00;99685.75;5032996;28;20045;-61
2024/01/19 09:42:19;;;;;;;1.00;1.00;;;;;;;-3.61;100.00;99689.38;5034829;28;20033;-59
2024/01/19 09:44:50;;;;;;;0.90;0.90;;;;;;;-3.29;100.00;99696.06;5040266;28;20057;-60
2024/01/19 09:47:18;;;;;;;0.90;0.90;;;;;;;-3.42;100.00;99701.63;5038469;28;20530;-59
2024/01/19 09:49:57;;;;;;;0.90;0.90;;;;;;;-2.87;100.00;99706.97;5040610;28;20036;-61
2024/01/19 09:52:28;;;;;;;0.95;0.95;;;;;;;-3.11;100.00;99711.88;5036384;28;20160;-60
2024/01/19 09:54:55;;;;;;;;;;;;;;;-2.59;100.00;99714.84;5033135;28;20522;-59
2024/01/19 09:57:22;;;;;;;1.00;1.00;;;;;;;-2.70;100.00;99717.66;5021156;28;20346;-60
2024/01/19 09:59:49;;;;;;;0.90;0.90;;;;;;;-2.60;100.00;99723.69;5039480;28;20111;-60
2024/01/19 10:02:16;;;;;;;0.90;0.90;;;;;;;-2.33;100.00;99722.84;5025077;28;20052;-60
2024/01/19 10:04:43;;;;;;;1.05;1.05;;;;;;;-2.98;100.00;99722.88;5029216;28;20428;-59
2024/01/19 10:07:12;;;;;;;1.00;1.00;;;;;;;-3.21;100.00;99721.56;5033745;28;20048;-59
2024/01/19 10:09:40;;;;;;;1.00;1.00;;;;;;;-3.25;100.00;99721.84;5039854;28;20037;-61
2024/01/19 10:12:08;;;;;;;1.10;1.10;;;;;;;-2.25;100.00;99730.00;5022647;28;20522;-59
2024/01/19 10:14:35;;;;;;;1.00;1.00;;;;;;;-1.16;100.00;99730.63;5037781;28;20102;-60
2024/01/19 10:17:02;;;;;;;1.00;1.00;;;;;;;-0.75;100.00;99743.19;5040221;28;20576;-60
2024/01/19 10:19:29;;;;;;;0.95;0.95;;;;;;;-0.59;100.00;99745.09;5037644;28;20045;-60
2024/01/19 10:21:57;;;;;;;0.90;0.90;;;;;;;-1.82;100.00;99747.69;5024133;28;20053;-60
2024/01/19 10:24:25;;;;;;;0.90;0.90;;;;;;;-2.59;100.00;99748.16;5043202;28;20044;-60
2024/01/19 10:26:53;;;;;;;0.98;0.98;;;;;;;-2.90;100.00;99751.00;5040899;28;20067;-59
2024/01/19 10:29:21;;;;;;;0.93;0.93;;;;;;;-2.86;100.00;99749.78;5037159;28;20094;-58
2024/01/19 10:31:48;;;;;;;0.90;0.90;;;;;;;-2.53;100.00;99758.88;5020214;28;20040;-59
2024/01/19 10:34:20;;;;;;;0.90;0.90;;;;;;;-2.12;100.00;99764.63;5036450;28;20038;-61
2024/01/19 10:36:47;;;;;;;1.00;1.00;;;;;;;-2.13;100.00;99770.84;5024836;28;20033;-60
2024/01/19 10:39:18;;;;;;;1.00;1.00;;;;;;;-2.41;100.00;99772.66;5032006;28;20084;-61
2024/01/19 10:41:47;;;;;;;0.70;0.70;;;;;;;-2.47;100.00;99768.81;5036872;28;20049;-60
2024/01/19 10:44:16;;;;;;;0.95;0.95;;;;;;;-2.17;100.00;99769.50;5038835;28;20056;-59
2024/01/19 10:46:43;;;;;;;1.05;1.05;;;;;;;-1.74;100.00;99762.72;5037968;28;20037;-58
2024/01/19 10:49:11;;;;;;;1.10;1.10;;;;;;;-1.60;100.00;99772.69;5036270;28;20454;-59
2024/01/19 10:51:39;;;;;;;0.98;0.98;;;;;;;-1.45;100.00;99774.78;5022235;28;20376;-59
2024/01/19 10:54:07;;;;;;;1.00;1.00;;;;;;;-2.00;100.00;99770.47;5023711;28;20044;-59
2024/01/19 10:56:34;;;;;;;0.90;0.90;;;;;;;-0.93;100.00;99774.84;5034001;28;20040;-59
2024/01/19 10:59:22;;;;;;;0.90;0.90;;;;;;;-2.34;100.00;99783.41;5035961;28;20076;-60
2024/01/19 11:01:49;;;;;;;0.80;0.80;;;;;;;-1.86;100.00;99775.22;5033967;28;20072;-59
2024/01/19 11:04:16;;;;;;;1.17;1.17;;;;;;;-1.47;100.00;99781.97;5033007;28;20348;-59
2024/01/19 11:06:43;;;;;;;1.10;1.10;;;;;;;-1.73;100.00;99773.06;5035372;28;20037;-60
2024/01/19 11:09:10;;;;;;;1.00;1.00;;;;;;;-1.84;100.00;99780.34;5035675;28;20881;-59
2024/01/19 11:11:40;;;;;;;1.00;1.00;;;;;;;-2.12;100.00;99777.75;5042642;28;20049;-59
2024/01/19 11:14:08;;;;;;;1.00;1.00;;;;;;;-2.38;100.00;99778.44;5038328;28;20098;-59
2024/01/19 11:16:40;;;;;;;1.00;1.00;;;;;;;-2.52;100.00;99780.69;5030349;28;20045;-59
2024/01/19 11:19:07;;;;;;;1.10;1.10;;;;;;;-2.77;100.00;99785.66;5041703;28;20045;-59
2024/01/19 11:21:34;;;;;;;1.02;1.02;;;;;;;-2.82;100.00;99783.44;5035051;28;20056;-59
2024/01/19 11:24:03;;;;;;;0.98;0.98;;;;;;;-2.45;100.00;99785.22;5018437;28;20056;-59
2024/01/19 11:26:34;;;;;;;1.10;1.10;;;;;;;-2.46;100.00;99788.84;5039467;28;20045;-59
2024/01/19 11:29:02;;;;;;;1.00;1.00;;;;;;;-2.46;100.00;99794.09;5035477;28;20498;-59